Riverhead, NY (11901)

9:51 PM EDT on August 23, 2016 (GMT -0400)
riverhead ny | | Change Station

Elev 46 ft 40.93 °N, 72.67 °W | Updated 4 seconds ago

Clear
Clear
67.8 °F
Feels Like 67.8 °F
N
0.0
Wind Variable Wind from West
Gusts 0.0 mph

Today
High -- | Low -- °F
--% Chance of Precip.
Yesterday
High -- | Low -- °F
Precip. -- in
Pressure 30.28 in
Visibility 10.0 miles
Clouds Clear
Dew Point 57 °F
Humidity 69%
Rainfall 0.00 in
Snow Depth Not available.
6:08 AM 7:36 PM
Waning Gibbous, 62% visible
METAR KFOK 240053Z 23004KT 10SM CLR 18/13 A3028 RMK AO2 SLP254 T01830133
Pressure 30.28 in
Visibility 10.0 miles
Clouds Clear
Dew Point 57 °F
Humidity 69%
Rainfall 0.00 in
Snow Depth Not available.
6:08 AM 7:36 PM
Waning Gibbous, 62% visible
METAR KFOK 240053Z 23004KT 10SM CLR 18/13 A3028 RMK AO2 SLP254 T01830133

10-Day Weather Forecast

Almanac

Astronomy

Aug. 23, 2016 Rise Set
Actual Time
Civil Twilight
Nautical Twilight
Astronomical Twilight
Moon
Length of Visible Light
Length of Day
Tomorrow will be .
, % of the Moon is Illuminated

Today's Extremes

State Highs State Lows

Community

WunderPhotos

Upload Photos

1,934,520 photos uploaded!

WunderBlog® & News

Nearby

Air Quality

  Air Quality AQ Index Pollutant
Not available.

Snow Depth

Station Depth Elevation

Earthquake Activity

City Distance Mag. Time & Date
Minimum magnitude displayed is 2.5.

Coastal Water Temperatures

Place Temperature

Stations

Nearby Weather Stations

Station Location Temp. Windchill Dew Point Humidity Wind Precip. Elev Updated Type
                   

Watches & Warnings

There are currently no watches in effect.